Time;durP1;ratioP1;P1;durP2;ratioP2;P2;SDS_P1;SDS_P2;PMS_P1;PMS_P2;Temp;Humidity;BMP_temperature;BMP_pressure;BME280_temperature;BME280_humidity;BME280_pressure;Samples;Min_cycle;Max_cycle;Signal;HPM_P1;HPM_P2
2022/03/13 00:00:42;;;;;;;;;10.00;7.00;;;;;15.61;57.64;100770.91;5095465;27;64804;-80
2022/03/13 00:03:10;;;;;;;;;10.50;8.00;;;;;15.62;57.74;100769.16;5119391;27;61977;-80
2022/03/13 00:05:39;;;;;;;;;9.00;7.25;;;;;15.61;57.69;100770.00;5103386;27;61889;-80
2022/03/13 00:08:16;;;;;;;;;11.50;8.00;;;;;15.65;57.74;100763.94;5102247;27;61766;-80
2022/03/13 00:10:47;;;;;;;;;7.00;6.25;;;;;15.62;57.19;100764.75;5102816;27;61903;-80
2022/03/13 00:13:19;;;;;;;;;10.50;7.25;;;;;15.63;56.87;100769.19;5103409;27;61785;-80
2022/03/13 00:15:45;;;;;;;;;7.75;7.75;;;;;15.58;56.48;100762.00;5101400;27;62000;-79
2022/03/13 00:18:12;;;;;;;;;8.00;6.00;;;;;15.63;57.05;100769.19;5103426;27;62034;-80
2022/03/13 00:20:38;;;;;;;;;10.50;9.00;;;;;15.66;56.91;100771.91;5101300;27;64243;-80
2022/03/13 00:23:05;;;;;;;;;7.75;7.25;;;;;15.68;56.31;100766.63;5101870;27;62025;-80
2022/03/13 00:25:30;;;;;;;;;8.00;8.00;;;;;15.70;56.65;100768.50;5101647;27;62043;-79
2022/03/13 00:27:56;;;;;;;;;10.75;7.75;;;;;15.71;56.51;100762.34;5105546;27;61693;-80
2022/03/13 00:30:23;;;;;;;;;10.25;9.25;;;;;15.71;56.42;100759.72;5105753;27;63083;-80
2022/03/13 00:32:48;;;;;;;;;9.00;7.50;;;;;15.73;55.95;100767.69;5106592;27;62008;-80
2022/03/13 00:35:14;;;;;;;;;13.00;10.00;;;;;15.75;55.83;100765.97;5106852;27;61956;-80
2022/03/13 00:37:40;;;;;;;;;7.75;6.50;;;;;15.76;56.24;100764.22;5105317;27;61818;-79
2022/03/13 00:40:06;;;;;;;;;7.75;7.25;;;;;15.73;56.00;100757.09;5105816;27;62213;-79
2022/03/13 00:42:31;;;;;;;;;9.25;6.50;;;;;15.72;55.79;100761.50;5106748;27;61864;-79
2022/03/13 00:44:57;;;;;;;;;9.00;7.75;;;;;15.69;55.85;100752.56;5106143;27;61977;-79
2022/03/13 00:47:22;;;;;;;;;12.00;4.75;;;;;15.68;55.46;100758.69;5105007;27;61975;-80
2022/03/13 00:49:49;;;;;;;;;12.75;6.75;;;;;15.68;55.55;100749.03;5104437;27;61720;-79
2022/03/13 00:52:15;;;;;;;;;6.25;6.25;;;;;15.72;55.54;100744.72;5122302;27;62199;-80
2022/03/13 00:54:41;;;;;;;;;4.25;3.25;;;;;15.73;55.43;100747.41;5106646;27;61853;-80
2022/03/13 00:57:07;;;;;;;;;5.75;5.75;;;;;15.77;55.14;100745.72;5106324;27;62187;-80
2022/03/13 00:59:32;;;;;;;;;6.75;6.75;;;;;15.78;54.87;100746.63;5103538;27;64641;-80
2022/03/13 01:01:58;;;;;;;;;6.00;6.00;;;;;15.80;55.20;100745.78;5105931;27;61952;-79
2022/03/13 01:04:24;;;;;;;;;7.50;6.25;;;;;15.83;54.65;100743.22;5106509;27;61750;-79
2022/03/13 01:06:49;;;;;;;;;13.00;7.25;;;;;15.83;54.79;100743.22;5105177;27;61809;-80
2022/03/13 01:09:15;;;;;;;;;7.75;7.50;;;;;15.84;54.26;100741.47;5105810;27;62089;-80
2022/03/13 01:11:40;;;;;;;;;4.00;4.00;;;;;15.83;54.25;100737.94;5104468;27;61951;-79
2022/03/13 01:14:06;;;;;;;;;9.00;6.00;;;;;15.81;54.64;100739.66;5104418;27;61755;-80
2022/03/13 01:16:40;;;;;;;;;4.75;4.50;;;;;15.84;54.22;100729.13;5106313;27;61762;-79
2022/03/13 01:19:07;;;;;;;;;8.75;6.00;;;;;15.82;53.79;100730.84;5121132;27;63458;-79
2022/03/13 01:21:37;;;;;;;;;10.00;7.25;;;;;15.85;54.17;100722.97;5105962;27;61870;-80
2022/03/13 01:24:06;;;;;;;;;10.75;5.75;;;;;15.87;53.41;100726.53;5104845;27;61799;-80
2022/03/13 01:26:36;;;;;;;;;7.00;6.00;;;;;15.87;53.81;100718.59;5104458;27;61845;-79
2022/03/13 01:29:04;;;;;;;;;8.25;5.75;;;;;15.89;53.76;100719.50;5104827;27;62868;-79
2022/03/13 01:31:34;;;;;;;;;6.75;3.00;;;;;15.90;53.78;100720.44;5105290;27;61833;-79
2022/03/13 01:34:01;;;;;;;;;5.00;3.75;;;;;15.85;53.59;100712.41;5106118;27;61639;-79
2022/03/13 01:36:27;;;;;;;;;5.00;5.00;;;;;15.90;53.76;100710.72;5106001;27;62139;-79
2022/03/13 01:38:56;;;;;;;;;3.50;3.50;;;;;15.95;53.40;100705.53;5103237;27;64886;-79
2022/03/13 01:41:28;;;;;;;;;3.50;3.50;;;;;15.94;52.98;100709.94;5104272;27;61889;-79
2022/03/13 01:43:55;;;;;;;;;6.00;4.50;;;;;15.87;52.78;100707.09;5105761;27;61759;-80
2022/03/13 01:46:21;;;;;;;;;4.50;4.00;;;;;15.91;52.89;100706.31;5105419;27;62034;-79
2022/03/13 01:48:57;;;;;;;;;5.25;5.25;;;;;15.92;52.83;100716.06;5105006;27;61835;-79
2022/03/13 01:51:25;;;;;;;;;6.75;6.00;;;;;15.91;52.74;100707.19;5105481;27;61817;-79
2022/03/13 01:53:54;;;;;;;;;6.25;5.00;;;;;15.93;52.53;100700.19;5105636;27;61754;-79
2022/03/13 01:56:21;;;;;;;;;4.00;4.00;;;;;15.94;52.59;100696.69;5103487;27;61985;-79
2022/03/13 01:58:50;;;;;;;;;6.50;4.50;;;;;15.92;52.57;100692.22;5103258;27;63922;-80
2022/03/13 02:01:20;;;;;;;;;4.50;4.25;;;;;15.87;52.18;100684.16;5103808;27;61799;-80
2022/03/13 02:03:46;;;;;;;;;4.50;4.50;;;;;15.89;52.40;100681.56;5104245;27;62101;-80
2022/03/13 02:06:12;;;;;;;;;3.00;3.00;;;;;15.86;52.25;100678.88;5105484;27;62157;-79
2022/03/13 02:08:38;;;;;;;;;3.00;3.00;;;;;15.82;52.27;100675.25;5103296;27;63316;-80
2022/03/13 02:11:05;;;;;;;;;3.75;3.75;;;;;15.80;52.08;100679.63;5103457;27;61964;-79
2022/03/13 02:13:34;;;;;;;;;5.50;4.25;;;;;15.78;52.48;100665.47;5103927;27;61890;-79
2022/03/13 02:16:01;;;;;;;;;4.00;4.00;;;;;15.74;52.59;100666.25;5105209;27;62010;-79
2022/03/13 02:18:27;;;;;;;;;4.75;3.00;;;;;15.72;52.52;100665.31;5102978;27;64617;-79
2022/03/13 02:20:53;;;;;;;;;4.00;2.75;;;;;15.69;52.48;100662.59;5104924;27;61821;-79
2022/03/13 02:23:23;;;;;;;;;7.00;3.00;;;;;15.63;52.83;100660.69;5105066;27;61724;-79
2022/03/13 02:25:56;;;;;;;;;6.75;4.00;;;;;15.58;52.65;100661.47;5103502;27;61923;-79
2022/03/13 02:28:24;;;;;;;;;5.00;3.50;;;;;15.53;52.99;100656.97;5103984;27;62102;-79
2022/03/13 02:30:51;;;;;;;;;4.50;4.50;;;;;15.51;53.18;100663.06;5104681;27;61826;-79
2022/03/13 02:33:19;;;;;;;;;2.25;1.00;;;;;15.49;52.96;100659.53;5103583;27;61801;-79
2022/03/13 02:35:53;;;;;;;;;6.00;5.00;;;;;15.46;53.36;100651.50;5103657;27;61790;-79
2022/03/13 02:38:18;;;;;;;;;5.00;5.00;;;;;15.42;53.37;100649.63;5102771;27;61932;-80
2022/03/13 02:40:44;;;;;;;;;4.25;4.25;;;;;15.40;53.36;100649.59;5102830;27;61941;-79
2022/03/13 02:43:09;;;;;;;;;5.00;5.00;;;;;15.36;53.61;100641.56;5104780;27;62063;-79
2022/03/13 02:45:37;;;;;;;;;4.25;2.75;;;;;15.30;53.52;100640.56;5105044;27;61964;-79
2022/03/13 02:48:06;;;;;;;;;3.50;3.50;;;;;15.27;53.64;100635.19;5103938;27;62748;-79
2022/03/13 02:50:32;;;;;;;;;4.00;3.00;;;;;15.24;53.86;100639.53;5101911;27;62155;-79
2022/03/13 02:52:58;;;;;;;;;4.75;4.00;;;;;15.22;53.60;100638.63;5104679;27;61911;-79
2022/03/13 02:55:24;;;;;;;;;6.00;6.00;;;;;15.15;53.55;100626.13;5104356;27;61685;-79
2022/03/13 02:57:49;;;;;;;;;3.00;3.00;;;;;15.11;53.49;100633.97;5102201;27;61856;-79
2022/03/13 03:00:17;;;;;;;;;5.75;5.75;;;;;15.10;54.00;100632.19;5104284;27;61792;-79
2022/03/13 03:02:43;;;;;;;;;4.75;4.75;;;;;15.10;54.02;100629.56;5104186;27;61857;-79
2022/03/13 03:05:10;;;;;;;;;4.50;4.50;;;;;15.05;53.71;100631.19;5103182;27;62030;-79
2022/03/13 03:07:36;;;;;;;;;4.25;4.25;;;;;15.05;53.98;100627.66;5102175;27;63839;-79
2022/03/13 03:10:09;;;;;;;;;5.25;5.25;;;;;15.03;53.72;100629.34;5103892;27;61938;-79
2022/03/13 03:12:35;;;;;;;;;9.25;6.75;;;;;15.01;53.93;100618.75;5104368;27;61859;-79
2022/03/13 03:15:00;;;;;;;;;4.50;4.50;;;;;15.02;53.71;100620.53;5104531;27;62220;-79
2022/03/13 03:17:27;;;;;;;;;6.25;5.00;;;;;14.98;53.62;100617.78;5102933;27;61989;-79
2022/03/13 03:19:52;;;;;;;;;4.75;2.50;;;;;14.97;53.61;100623.91;5104295;27;61761;-79
2022/03/13 03:22:17;;;;;;;;;6.25;4.00;;;;;14.95;53.28;100610.66;5104064;27;61729;-79
2022/03/13 03:24:43;;;;;;;;;5.50;4.00;;;;;14.95;53.55;100615.06;5102608;27;62312;-79
2022/03/13 03:27:09;;;;;;;;;4.75;4.75;;;;;14.96;53.51;100606.28;5102753;27;61789;-79
2022/03/13 03:29:34;;;;;;;;;5.75;5.50;;;;;14.93;53.65;100607.09;5103912;27;61881;-79
2022/03/13 03:32:02;;;;;;;;;6.00;4.00;;;;;14.92;53.52;100613.25;5102605;27;61788;-79
2022/03/13 03:34:28;;;;;;;;;3.75;3.00;;;;;14.92;53.61;100605.31;5104265;27;61974;-79
2022/03/13 03:36:58;;;;;;;;;6.50;6.50;;;;;14.89;53.71;100606.13;5103053;27;63008;-79
2022/03/13 03:39:25;;;;;;;;;9.75;4.50;;;;;14.88;53.51;100603.44;5102030;27;61842;-79
2022/03/13 03:41:53;;;;;;;;;7.00;6.00;;;;;14.87;53.18;100610.50;5102464;27;61923;-79
2022/03/13 03:44:20;;;;;;;;;8.00;3.50;;;;;14.85;53.59;100612.22;5103954;27;61776;-79
2022/03/13 03:46:47;;;;;;;;;6.50;4.25;;;;;14.79;53.56;100608.53;5102790;27;62018;-79
2022/03/13 03:49:12;;;;;;;;;3.75;3.75;;;;;14.75;53.79;100602.25;5103765;27;61754;-79
2022/03/13 03:51:39;;;;;;;;;10.25;5.00;;;;;14.75;53.48;100599.63;5102334;27;61767;-79
2022/03/13 03:54:06;;;;;;;;;8.00;4.00;;;;;14.80;53.17;100599.72;5101964;27;61789;-79
2022/03/13 03:56:32;;;;;;;;;6.75;4.00;;;;;14.80;52.85;100603.25;5102792;27;62037;-79
2022/03/13 03:58:57;;;;;;;;;3.00;3.00;;;;;14.76;53.34;100604.06;5103401;27;61751;-79
2022/03/13 04:01:23;;;;;;;;;6.00;6.00;;;;;14.78;53.28;100612.94;5102880;27;62021;-79
2022/03/13 04:03:49;;;;;;;;;4.00;4.00;;;;;14.76;52.74;100603.16;5102236;27;61888;-79
2022/03/13 04:06:15;;;;;;;;;7.25;7.00;;;;;14.78;53.15;100610.28;5101282;27;64552;-79
2022/03/13 04:08:41;;;;;;;;;6.50;6.50;;;;;14.80;53.06;100603.25;5118936;27;61839;-79
2022/03/13 04:11:08;;;;;;;;;7.75;5.00;;;;;14.80;52.68;100595.31;5103308;27;61720;-79
2022/03/13 04:13:36;;;;;;;;;3.50;2.00;;;;;14.81;52.76;100605.06;5103700;27;61731;-79
2022/03/13 04:16:02;;;;;;;;;6.50;6.00;;;;;14.83;52.86;100607.75;5102379;27;63050;-78
2022/03/13 04:18:27;;;;;;;;;6.75;4.75;;;;;14.86;52.74;100608.69;5101792;27;61841;-78
2022/03/13 04:20:53;;;;;;;;;6.25;3.50;;;;;14.90;52.88;100615.84;5103279;27;61783;-79
2022/03/13 04:23:18;;;;;;;;;5.50;5.50;;;;;14.90;52.26;100620.25;5103143;27;61826;-79
2022/03/13 04:25:44;;;;;;;;;6.50;6.50;;;;;14.92;52.62;100629.09;5102637;27;62378;-79
2022/03/13 04:28:10;;;;;;;;;7.00;6.00;;;;;14.95;52.70;100617.69;5102615;27;62210;-79
2022/03/13 04:30:39;;;;;;;;;5.00;5.00;;;;;14.87;52.37;100628.09;5101522;27;61842;-79
2022/03/13 04:33:05;;;;;;;;;5.75;5.75;;;;;14.83;52.72;100624.50;5103072;27;61969;-79
2022/03/13 04:35:30;;;;;;;;;4.00;3.00;;;;;14.87;52.70;100620.19;5102666;27;61850;-79
2022/03/13 04:37:56;;;;;;;;;6.50;4.50;;;;;14.85;52.13;100620.13;5102992;27;61606;-79
2022/03/13 04:40:21;;;;;;;;;7.00;6.25;;;;;14.89;52.07;100624.66;5118837;27;61802;-79
2022/03/13 04:42:46;;;;;;;;;3.25;3.00;;;;;14.91;52.20;100620.28;5103346;27;62230;-79
2022/03/13 04:45:13;;;;;;;;;3.75;3.75;;;;;14.97;52.22;100623.91;5102606;27;61889;-79
2022/03/13 04:47:38;;;;;;;;;5.00;5.00;;;;;14.98;51.67;100607.22;5102540;27;61933;-79
2022/03/13 04:50:04;;;;;;;;;5.50;4.00;;;;;15.03;51.87;100617.03;5103194;27;61989;-79
2022/03/13 04:52:30;;;;;;;;;3.50;3.50;;;;;15.02;51.53;100620.53;5102480;27;61817;-79
2022/03/13 04:54:55;;;;;;;;;4.00;4.00;;;;;15.00;51.61;100619.63;5102470;27;62991;-79
2022/03/13 04:57:21;;;;;;;;;6.00;4.00;;;;;15.02;51.44;100619.66;5102465;27;61811;-79
2022/03/13 04:59:46;;;;;;;;;4.25;3.25;;;;;14.96;51.27;100611.59;5102777;27;61964;-79
2022/03/13 05:02:12;;;;;;;;;4.00;2.50;;;;;15.04;51.52;100615.28;5102677;27;62065;-79
2022/03/13 05:04:38;;;;;;;;;3.50;3.00;;;;;15.04;51.24;100613.53;5101909;27;63225;-79
2022/03/13 05:07:06;;;;;;;;;2.00;1.00;;;;;15.03;51.24;100608.22;5100976;27;61720;-79
2022/03/13 05:09:32;;;;;;;;;3.50;2.25;;;;;14.99;51.30;100607.22;5102678;27;61774;-79
2022/03/13 05:12:00;;;;;;;;;3.00;3.00;;;;;15.01;50.98;100602.00;5102844;27;61730;-79
2022/03/13 05:14:26;;;;;;;;;4.00;4.00;;;;;14.97;50.76;100597.50;5103874;27;61751;-79
2022/03/13 05:16:51;;;;;;;;;3.00;3.00;;;;;14.96;50.76;100595.72;5104341;27;61960;-79
2022/03/13 05:19:17;;;;;;;;;5.75;3.25;;;;;14.99;50.94;100594.03;5104434;27;61812;-79
2022/03/13 05:21:42;;;;;;;;;5.25;4.00;;;;;14.96;50.75;100598.38;5106228;27;61748;-79
2022/03/13 05:24:08;;;;;;;;;6.50;3.75;;;;;14.96;50.54;100601.91;5105431;27;61774;-79
2022/03/13 05:26:33;;;;;;;;;8.75;3.00;;;;;14.92;51.01;100594.75;5105706;27;61723;-78
2022/03/13 05:28:59;;;;;;;;;6.50;3.00;;;;;14.88;51.04;100599.06;5106127;27;61915;-79
2022/03/13 05:31:25;;;;;;;;;4.00;1.50;;;;;14.83;50.80;100600.72;5104127;27;61789;-79
2022/03/13 05:33:50;;;;;;;;;3.50;3.00;;;;;14.83;50.98;100607.75;5103610;27;64402;-79
2022/03/13 05:36:17;;;;;;;;;2.50;2.50;;;;;14.84;50.82;100618.34;5105811;27;61770;-79
2022/03/13 05:38:42;;;;;;;;;2.00;2.00;;;;;14.85;50.87;100609.56;5104707;27;62082;-79
2022/03/13 05:41:09;;;;;;;;;5.50;4.00;;;;;14.84;50.51;100613.03;5105936;27;61802;-79
2022/03/13 05:43:35;;;;;;;;;4.00;4.00;;;;;14.85;50.45;100614.84;5105190;27;61925;-79
2022/03/13 05:46:00;;;;;;;;;2.50;1.50;;;;;14.85;50.71;100600.75;5121760;27;61864;-79
2022/03/13 05:48:26;;;;;;;;;2.00;2.00;;;;;14.85;50.36;100608.69;5104835;27;61770;-79
2022/03/13 05:50:52;;;;;;;;;2.25;2.25;;;;;14.85;50.63;100609.56;5138973;27;61777;-79
2022/03/13 05:53:20;;;;;;;;;4.50;4.50;;;;;14.87;50.66;100613.13;5103909;27;62909;-79
2022/03/13 05:55:47;;;;;;;;;4.25;2.00;;;;;14.91;50.65;100604.44;5104210;27;61763;-78
2022/03/13 05:58:13;;;;;;;;;3.50;1.75;;;;;14.90;50.47;100609.66;5103680;27;61801;-78
2022/03/13 06:00:39;;;;;;;;;4.50;3.25;;;;;14.95;50.46;100609.78;5104443;27;61949;-79
2022/03/13 06:03:06;;;;;;;;;8.25;4.50;;;;;14.92;50.41;100614.13;5104213;27;61857;-79
2022/03/13 06:05:35;;;;;;;;;3.25;3.25;;;;;14.92;50.57;100613.25;5104333;27;61794;-79
2022/03/13 06:08:01;;;;;;;;;4.50;3.00;;;;;14.92;50.37;100614.13;5104061;27;61740;-79
2022/03/13 06:10:27;;;;;;;;;2.25;2.00;;;;;14.90;50.37;100612.31;5104231;27;61858;-79
2022/03/13 06:12:53;;;;;;;;;2.00;2.00;;;;;14.93;50.50;100612.38;5104567;27;62683;-79
2022/03/13 06:15:19;;;;;;;;;4.50;3.50;;;;;14.89;50.49;100616.72;5105409;27;61974;-79
2022/03/13 06:17:46;;;;;;;;;5.00;2.00;;;;;14.95;50.01;100615.06;5104414;27;62067;-79
2022/03/13 06:20:14;;;;;;;;;2.00;2.00;;;;;14.92;50.04;100621.19;5105440;27;62100;-79
2022/03/13 06:22:42;;;;;;;;;2.75;2.75;;;;;14.89;50.12;100621.13;5104487;27;62149;-79
2022/03/13 06:25:09;;;;;;;;;2.25;2.25;;;;;14.90;50.52;100623.78;5103628;27;62061;-79
2022/03/13 06:27:35;;;;;;;;;6.00;3.25;;;;;14.93;50.23;100622.94;5104615;27;61943;-79
2022/03/13 06:30:08;;;;;;;;;2.25;2.00;;;;;14.95;50.22;100631.81;5103878;27;61869;-79
2022/03/13 06:32:34;;;;;;;;;3.00;2.00;;;;;14.98;50.51;100628.38;5119585;27;62135;-79
2022/03/13 06:34:59;;;;;;;;;5.50;2.00;;;;;14.97;50.00;100634.50;5103656;27;61984;-79
2022/03/13 06:37:25;;;;;;;;;2.00;2.00;;;;;14.99;50.15;100632.78;5104882;27;61850;-79
2022/03/13 06:39:50;;;;;;;;;3.00;2.00;;;;;15.01;49.92;100629.31;5105234;27;62197;-79
2022/03/13 06:42:16;;;;;;;;;2.00;1.25;;;;;15.02;49.60;100627.59;5102717;27;63508;-79
2022/03/13 06:44:42;;;;;;;;;4.00;1.75;;;;;15.02;49.52;100636.41;5104672;27;61891;-79
2022/03/13 06:47:08;;;;;;;;;2.00;2.00;;;;;15.00;49.55;100631.94;5102565;27;61681;-79
2022/03/13 06:49:33;;;;;;;;;2.00;2.00;;;;;15.07;49.71;100628.56;5103236;27;61973;-79
2022/03/13 06:51:58;;;;;;;;;1.00;1.00;;;;;15.08;49.49;100630.34;5103762;27;63001;-78
2022/03/13 06:54:24;;;;;;;;;1.75;1.75;;;;;15.17;49.27;100630.59;5104740;27;61704;-79
2022/03/13 06:56:50;;;;;;;;;1.00;1.00;;;;;15.18;49.32;100637.66;5104306;27;61913;-79
2022/03/13 06:59:16;;;;;;;;;1.00;1.00;;;;;15.23;49.31;100629.81;5104709;27;62001;-79
2022/03/13 07:01:41;;;;;;;;;3.25;1.00;;;;;15.28;48.96;100637.00;5102815;27;61861;-79
2022/03/13 07:04:07;;;;;;;;;3.75;3.00;;;;;15.33;48.09;100632.69;5104535;27;61901;-79
2022/03/13 07:06:33;;;;;;;;;1.50;0.00;;;;;15.38;48.12;100627.53;5104694;27;61791;-79
2022/03/13 07:08:59;;;;;;;;;1.00;1.00;;;;;15.45;48.24;100633.84;5104625;27;61819;-79
2022/03/13 07:11:30;;;;;;;;;0.00;0.00;;;;;15.51;47.99;100634.88;5103836;27;61874;-78
2022/03/13 07:13:56;;;;;;;;;1.00;1.00;;;;;15.61;47.61;100630.66;5104459;27;61929;-79
2022/03/13 07:16:21;;;;;;;;;3.25;1.25;;;;;15.68;47.73;100632.59;5102200;27;62085;-78
2022/03/13 07:18:47;;;;;;;;;3.75;2.00;;;;;15.73;47.81;100632.72;5103220;27;61899;-79
2022/03/13 07:21:12;;;;;;;;;7.75;5.75;;;;;15.74;47.73;100618.63;5103291;27;63092;-79
2022/03/13 07:23:38;;;;;;;;;2.50;2.25;;;;;15.76;47.64;100626.59;5104209;27;61874;-79
2022/03/13 07:26:04;;;;;;;;;3.00;1.75;;;;;15.81;47.41;100617.91;5102453;27;61937;-78
2022/03/13 07:28:29;;;;;;;;;2.00;2.00;;;;;15.85;47.20;100619.75;5104380;27;62173;-79
2022/03/13 07:30:56;;;;;;;;;6.50;2.00;;;;;16.02;46.82;100617.41;5102896;27;62738;-78
2022/03/13 07:33:21;;;;;;;;;0.00;0.00;;;;;16.21;46.68;100621.31;5103632;27;62223;-79
2022/03/13 07:35:47;;;;;;;;;2.00;1.00;;;;;16.43;46.53;100625.25;5102455;27;61944;-78
2022/03/13 07:38:12;;;;;;;;;3.00;1.00;;;;;16.85;45.64;100623.34;5103581;27;62076;-79
2022/03/13 07:40:38;;;;;;;;;3.00;1.50;;;;;17.16;44.38;100620.28;5102034;27;61989;-81
2022/03/13 07:43:04;;;;;;;;;2.75;2.00;;;;;17.29;44.28;100628.44;5101912;27;61750;-81
2022/03/13 07:45:30;;;;;;;;;2.50;2.25;;;;;17.35;43.93;100636.47;5102995;27;61738;-82
2022/03/13 07:47:57;;;;;;;;;2.00;2.00;;;;;17.25;43.82;100630.16;5103167;27;62240;-82
2022/03/13 07:50:24;;;;;;;;;1.00;1.00;;;;;17.12;43.50;100641.44;5101291;27;63123;-82
2022/03/13 07:52:50;;;;;;;;;2.00;1.00;;;;;16.93;44.21;100637.63;5099781;27;62011;-82
2022/03/13 07:55:16;;;;;;;;;2.00;1.00;;;;;16.91;44.19;100629.63;5102020;27;61909;-82
2022/03/13 07:57:42;;;;;;;;;1.25;1.25;;;;;16.95;43.81;100639.41;5101480;27;61933;-83
2022/03/13 08:00:10;;;;;;;;;4.25;1.75;;;;;16.91;44.49;100634.03;5100431;27;62047;-83
2022/03/13 08:02:36;;;;;;;;;3.50;2.00;;;;;16.89;44.05;100641.06;5092799;27;61767;-84
2022/03/13 08:05:02;;;;;;;;;1.00;1.00;;;;;17.06;43.93;100638.69;5091345;27;61847;-83
2022/03/13 08:07:28;;;;;;;;;2.00;1.00;;;;;17.13;43.78;100643.22;5091040;27;61967;-84
2022/03/13 08:09:53;;;;;;;;;3.50;2.75;;;;;17.19;44.13;100632.72;5074696;27;61963;-82
2022/03/13 08:12:19;;;;;;;;;1.00;1.00;;;;;17.22;43.46;100632.72;5074971;27;61955;-83
2022/03/13 08:14:45;;;;;;;;;1.00;1.00;;;;;17.21;43.53;100630.97;5073149;27;62118;-83
2022/03/13 08:17:11;;;;;;;;;1.00;1.00;;;;;17.23;43.19;100629.22;5092405;27;62043;-83
2022/03/13 08:19:37;;;;;;;;;2.75;1.75;;;;;17.35;43.35;100621.47;5074628;27;63470;-83
2022/03/13 08:22:02;;;;;;;;;0.25;0.00;;;;;17.37;43.12;100621.44;5091127;27;61906;-85
2022/03/13 08:24:28;;;;;;;;;2.50;1.75;;;;;17.50;43.03;100630.47;5082969;28;61756;-86
2022/03/13 08:26:54;;;;;;;;;2.25;2.25;;;;;17.59;42.62;100633.28;5082535;28;61719;-78
2022/03/13 08:29:19;;;;;;;;;1.50;1.50;;;;;17.54;43.07;100635.84;5081868;28;62287;-89
2022/03/13 08:31:45;;;;;;;;;1.50;1.50;;;;;17.44;43.04;100627.72;5064046;28;62054;-85
2022/03/13 08:34:10;;;;;;;;;1.00;1.00;;;;;17.54;42.41;100622.56;5064362;28;62178;-83
2022/03/13 08:36:46;;;;;;;;;4.00;2.00;;;;;17.60;42.43;100620.88;5064557;28;62177;-84
2022/03/13 08:39:12;;;;;;;;;1.00;1.00;;;;;17.66;42.40;100618.31;5082234;28;62025;-84
2022/03/13 08:41:37;;;;;;;;;2.00;2.00;;;;;17.81;42.66;100623.81;5082536;28;61764;-85
2022/03/13 08:44:04;;;;;;;;;1.50;1.00;;;;;17.94;42.74;100619.56;5055482;27;61939;-84
2022/03/13 08:46:30;;;;;;;;;3.00;2.00;;;;;18.11;42.24;100607.38;5059960;28;62076;-83
2022/03/13 08:48:57;;;;;;;;;1.75;1.75;;;;;18.28;41.85;100604.88;5063657;28;63088;-84
2022/03/13 08:51:23;;;;;;;;;1.00;1.00;;;;;18.39;41.68;100607.66;5062633;28;62121;-83
2022/03/13 08:53:50;;;;;;;;;0.25;0.25;;;;;18.50;41.35;100613.94;5079609;27;61811;-83
2022/03/13 08:56:16;;;;;;;;;2.25;1.00;;;;;18.66;41.47;100614.06;5106272;27;61784;-83
2022/03/13 08:58:42;;;;;;;;;1.00;1.00;;;;;18.80;40.84;100616.00;5089144;27;63720;-83
2022/03/13 09:01:08;;;;;;;;;0.75;0.25;;;;;18.85;40.61;100608.06;5101608;27;62629;-80
2022/03/13 09:03:34;;;;;;;;;1.50;1.50;;;;;18.88;40.80;100610.75;5105138;27;61922;-78
2022/03/13 09:05:59;;;;;;;;;1.00;1.00;;;;;18.90;40.00;100608.13;5104950;27;61926;-79
2022/03/13 09:08:25;;;;;;;;;1.00;1.00;;;;;18.94;40.29;100615.25;5113482;27;62003;-79
2022/03/13 09:10:52;;;;;;;;;2.00;2.00;;;;;18.96;40.15;100622.34;5114172;27;61841;-80
2022/03/13 09:13:19;;;;;;;;;1.00;1.00;;;;;18.99;40.34;100610.84;5115772;27;61704;-80
2022/03/13 09:15:44;;;;;;;;;2.00;0.25;;;;;18.95;40.24;100620.56;5112933;27;62038;-81
2022/03/13 09:18:10;;;;;;;;;1.50;1.50;;;;;18.95;40.41;100627.66;5103449;27;63750;-80
2022/03/13 09:20:36;;;;;;;;;2.00;1.00;;;;;18.89;39.86;100633.81;5106119;27;61798;-79
2022/03/13 09:23:01;;;;;;;;;2.00;1.00;;;;;18.90;40.28;100630.28;5105129;27;61861;-85
2022/03/13 09:25:27;;;;;;;;;2.00;1.00;;;;;18.96;40.32;100619.69;5105922;27;61841;-84
2022/03/13 09:27:52;;;;;;;;;2.00;1.00;;;;;18.95;39.88;100628.53;5104243;27;62745;-84
2022/03/13 09:30:18;;;;;;;;;1.00;1.00;;;;;18.99;39.88;100627.69;5121571;27;61941;-84
2022/03/13 09:32:44;;;;;;;;;1.50;1.50;;;;;19.00;40.58;100633.88;5104049;27;61885;-85
2022/03/13 09:35:11;;;;;;;;;2.00;1.50;;;;;19.05;40.45;100626.84;5102846;27;62328;-84
2022/03/13 09:37:39;;;;;;;;;2.00;1.00;;;;;19.08;40.41;100633.97;5101780;27;62813;-84
2022/03/13 09:40:05;;;;;;;;;1.25;1.00;;;;;19.14;40.18;100623.34;5105226;27;61972;-84
2022/03/13 09:42:31;;;;;;;;;2.25;1.00;;;;;19.16;39.86;100621.59;5105194;27;62056;-85
2022/03/13 09:44:59;;;;;;;;;2.00;0.50;;;;;19.19;40.20;100634.91;5105382;27;61742;-86
2022/03/13 09:47:26;;;;;;;;;1.00;1.00;;;;;19.10;40.49;100640.19;5103060;27;62122;-83
2022/03/13 09:49:51;;;;;;;;;1.00;1.00;;;;;18.96;40.23;100635.66;5105045;27;61976;-91
2022/03/13 09:52:16;;;;;;;;;1.75;1.75;;;;;18.81;40.26;100638.19;5104505;27;62223;-94
2022/03/13 09:54:42;;;;;;;;;0.00;0.00;;;;;18.69;40.46;100646.03;5122396;27;61874;-92
2022/03/13 09:57:07;;;;;;;;;0.75;0.00;;;;;18.57;40.53;100645.06;5103399;27;64962;-90
2022/03/13 09:59:34;;;;;;;;;3.00;1.00;;;;;18.45;40.78;100646.69;5101909;27;61827;-90
2022/03/13 10:02:04;;;;;;;;;0.00;0.00;;;;;18.45;41.53;100650.25;5103608;27;62070;-91
2022/03/13 10:04:29;;;;;;;;;0.00;0.00;;;;;18.37;41.26;100654.56;5105335;27;61885;-92
2022/03/13 10:07:09;;;;;;;;;1.00;1.00;;;;;18.35;41.18;100648.34;5104492;27;61800;-91
2022/03/13 10:09:37;;;;;;;;;1.00;1.00;;;;;18.35;41.63;100649.25;5104354;27;61289;-88
2022/03/13 10:12:03;;;;;;;;;2.25;2.00;;;;;18.50;42.14;100645.84;5105167;27;61922;-92
2022/03/13 10:14:28;;;;;;;;;2.75;1.50;;;;;18.68;41.78;100646.88;5105455;27;61902;-92
2022/03/13 10:16:53;;;;;;;;;0.00;0.00;;;;;18.74;41.58;100645.16;5104871;27;62673;-88
2022/03/13 10:19:19;;;;;;;;;1.00;1.00;;;;;18.79;41.29;100640.84;5104062;27;61972;-91
2022/03/13 10:22:05;;;;;;;;;1.75;1.00;;;;;18.88;41.51;100647.13;5105414;27;62005;-91
2022/03/13 10:24:51;;;;;;;;;3.00;2.00;;;;;18.96;41.51;100629.47;5102344;27;61840;-88
2022/03/13 10:27:18;;;;;;;;;1.00;1.00;;;;;19.02;41.51;100642.78;5126732;27;62154;-92
2022/03/13 10:29:47;;;;;;;;;1.00;1.00;;;;;19.08;41.56;100632.19;5120535;27;61829;-91
2022/03/13 10:32:14;;;;;;;;;3.75;2.00;;;;;19.20;41.75;100623.41;5104288;27;61889;-90
2022/03/13 10:34:40;;;;;;;;;2.00;1.75;;;;;19.41;41.80;100622.66;5120637;27;62261;-90
2022/03/13 10:37:06;;;;;;;;;2.00;1.00;;;;;19.66;41.74;100628.09;5100706;27;63730;-91
2022/03/13 10:39:35;;;;;;;;;9.25;7.00;;;;;19.84;41.24;100630.88;5101183;27;61813;-93
2022/03/13 10:42:03;;;;;;;;;3.75;3.00;;;;;19.84;40.98;100622.88;5111334;27;61914;-92
2022/03/13 10:44:43;;;;;;;;;2.25;2.25;;;;;19.89;41.31;100618.44;5104558;27;61881;-90
2022/03/13 10:47:10;;;;;;;;;3.00;2.00;;;;;19.81;40.46;100617.53;5102621;27;63759;-92
2022/03/13 10:49:40;;;;;;;;;8.00;4.00;;;;;19.68;40.68;100608.56;5107464;27;61759;-86
2022/03/13 10:52:25;;;;;;;;;3.00;2.00;;;;;19.63;41.25;100610.31;5105831;27;61790;-87
2022/03/13 10:55:12;;;;;;;;;2.00;2.00;;;;;19.66;41.41;100607.66;5106062;27;61943;-94
2022/03/13 10:57:54;;;;;;;;;4.00;3.00;;;;;19.66;40.39;100607.66;5103062;27;63692;-93
2022/03/13 11:00:21;;;;;;;;;3.25;2.50;;;;;19.56;40.76;100612.06;5121207;27;61821;-93
2022/03/13 11:02:47;;;;;;;;;1.25;1.00;;;;;19.54;40.92;100607.63;5121290;27;61781;-95
2022/03/13 11:05:13;;;;;;;;;1.75;1.75;;;;;19.53;40.16;100603.16;5106696;27;61741;-94
2022/03/13 11:07:38;;;;;;;;;1.75;1.75;;;;;19.56;40.62;100604.09;5104126;27;63544;-91
2022/03/13 11:10:07;;;;;;;;;1.00;1.00;;;;;19.63;40.61;100599.69;5105432;27;61934;-90
2022/03/13 11:12:34;;;;;;;;;1.75;1.75;;;;;19.64;40.70;100608.53;5102780;27;61860;-92
2022/03/13 11:15:02;;;;;;;;;3.25;2.00;;;;;19.65;40.86;100616.56;5103698;27;61782;-90
2022/03/13 11:17:44;;;;;;;;;2.75;2.00;;;;;19.62;40.75;100616.53;5120310;27;63635;-95
2022/03/13 11:20:11;;;;;;;;;3.00;3.00;;;;;19.60;40.66;100608.56;5090584;27;61853;-92
2022/03/13 11:22:37;;;;;;;;;1.00;1.00;;;;;19.54;40.97;100610.28;5103479;27;61834;-89